sensor_id;sensor_type;location;lat;lon;timestamp;pressure;altitude;pressure_sealevel;temperature;humidity
71151;BME280;59071;42.138;24.768;2023-11-21T00:00:25;99480.94;;;10.71;52.85
71151;BME280;59071;42.138;24.768;2023-11-21T00:02:51;99482.47;;;10.47;53.49
71151;BME280;59071;42.138;24.768;2023-11-21T00:05:16;99484.50;;;10.52;53.65
71151;BME280;59071;42.138;24.768;2023-11-21T00:07:42;99490.59;;;10.66;53.24
71151;BME280;59071;42.138;24.768;2023-11-21T00:10:09;99486.72;;;10.62;53.88
71151;BME280;59071;42.138;24.768;2023-11-21T00:12:36;99483.09;;;10.49;54.01
71151;BME280;59071;42.138;24.768;2023-11-21T00:15:03;99490.50;;;10.34;54.62
71151;BME280;59071;42.138;24.768;2023-11-21T00:17:30;99491.28;;;10.28;55.10
71151;BME280;59071;42.138;24.768;2023-11-21T00:19:55;99497.63;;;10.20;55.86
71151;BME280;59071;42.138;24.768;2023-11-21T00:22:21;99493.16;;;10.14;56.73
71151;BME280;59071;42.138;24.768;2023-11-21T00:24:46;99490.28;;;9.82;57.14
71151;BME280;59071;42.138;24.768;2023-11-21T00:27:13;99489.47;;;9.95;57.15
71151;BME280;59071;42.138;24.768;2023-11-21T00:29:38;99490.69;;;9.52;58.63
71151;BME280;59071;42.138;24.768;2023-11-21T00:32:05;99484.38;;;9.73;58.37
71151;BME280;59071;42.138;24.768;2023-11-21T00:34:31;99484.75;;;9.57;58.65
71151;BME280;59071;42.138;24.768;2023-11-21T00:36:56;99474.97;;;9.51;58.71
71151;BME280;59071;42.138;24.768;2023-11-21T00:39:22;99475.53;;;9.19;59.80
71151;BME280;59071;42.138;24.768;2023-11-21T00:41:47;99480.88;;;9.33;60.47
71151;BME280;59071;42.138;24.768;2023-11-21T00:44:13;99486.41;;;9.51;60.35
71151;BME280;59071;42.138;24.768;2023-11-21T00:46:39;99485.00;;;9.75;59.10
71151;BME280;59071;42.138;24.768;2023-11-21T00:49:04;99483.94;;;9.76;59.22
71151;BME280;59071;42.138;24.768;2023-11-21T00:51:30;99489.84;;;9.38;60.40
71151;BME280;59071;42.138;24.768;2023-11-21T00:53:55;99483.03;;;9.03;61.54
71151;BME280;59071;42.138;24.768;2023-11-21T00:56:21;99481.63;;;9.07;61.72
71151;BME280;59071;42.138;24.768;2023-11-21T00:58:46;99486.66;;;8.88;62.45
71151;BME280;59071;42.138;24.768;2023-11-21T01:01:18;99487.28;;;8.90;62.72
71151;BME280;59071;42.138;24.768;2023-11-21T01:03:46;99483.66;;;9.11;62.14
71151;BME280;59071;42.138;24.768;2023-11-21T01:06:11;99472.81;;;8.99;62.04
71151;BME280;59071;42.138;24.768;2023-11-21T01:08:37;99474.72;;;8.64;63.46
71151;BME280;59071;42.138;24.768;2023-11-21T01:11:02;99480.06;;;8.77;63.38
71151;BME280;59071;42.138;24.768;2023-11-21T01:13:28;99488.03;;;8.77;63.34
71151;BME280;59071;42.138;24.768;2023-11-21T01:15:55;99487.22;;;8.77;63.40
71151;BME280;59071;42.138;24.768;2023-11-21T01:18:20;99483.97;;;8.12;65.46
71151;BME280;59071;42.138;24.768;2023-11-21T01:20:46;99489.38;;;8.25;65.52
71151;BME280;59071;42.138;24.768;2023-11-21T01:23:15;99483.31;;;8.03;66.55
71151;BME280;59071;42.138;24.768;2023-11-21T01:25:40;99483.88;;;8.27;65.89
71151;BME280;59071;42.138;24.768;2023-11-21T01:28:06;99489.91;;;8.14;66.14
71151;BME280;59071;42.138;24.768;2023-11-21T01:30:32;99483.19;;;8.18;65.81
71151;BME280;59071;42.138;24.768;2023-11-21T01:32:58;99488.25;;;8.13;65.87
71151;BME280;59071;42.138;24.768;2023-11-21T01:35:24;99484.31;;;7.74;67.37
71151;BME280;59071;42.138;24.768;2023-11-21T01:37:49;99488.25;;;7.56;68.27
71151;BME280;59071;42.138;24.768;2023-11-21T01:40:15;99478.72;;;7.62;68.64
71151;BME280;59071;42.138;24.768;2023-11-21T01:42:41;99487.94;;;7.44;69.19
71151;BME280;59071;42.138;24.768;2023-11-21T01:45:09;99477.84;;;7.55;69.08
71151;BME280;59071;42.138;24.768;2023-11-21T01:47:35;99483.34;;;6.95;70.95
71151;BME280;59071;42.138;24.768;2023-11-21T01:50:01;99471.88;;;7.10;70.24
71151;BME280;59071;42.138;24.768;2023-11-21T01:52:29;99470.91;;;7.32;69.43
71151;BME280;59071;42.138;24.768;2023-11-21T01:54:55;99472.34;;;7.13;70.63
71151;BME280;59071;42.138;24.768;2023-11-21T01:57:21;99479.41;;;7.28;69.37
71151;BME280;59071;42.138;24.768;2023-11-21T01:59:48;99480.34;;;7.41;69.52
71151;BME280;59071;42.138;24.768;2023-11-21T02:02:14;99479.88;;;7.31;69.47
71151;BME280;59071;42.138;24.768;2023-11-21T02:04:39;99470.13;;;7.17;69.64
71151;BME280;59071;42.138;24.768;2023-11-21T02:07:05;99473.53;;;7.11;69.65
71151;BME280;59071;42.138;24.768;2023-11-21T02:09:33;99468.16;;;7.04;70.58
71151;BME280;59071;42.138;24.768;2023-11-21T02:12:00;99465.75;;;7.24;69.74
71151;BME280;59071;42.138;24.768;2023-11-21T02:14:26;99462.66;;;6.84;70.85
71151;BME280;59071;42.138;24.768;2023-11-21T02:16:53;99465.66;;;6.81;70.84
71151;BME280;59071;42.138;24.768;2023-11-21T02:19:19;99464.28;;;6.85;70.45
71151;BME280;59071;42.138;24.768;2023-11-21T02:21:51;99472.44;;;6.83;70.24
71151;BME280;59071;42.138;24.768;2023-11-21T02:24:23;99464.34;;;6.70;71.09
71151;BME280;59071;42.138;24.768;2023-11-21T02:26:49;99471.56;;;6.98;70.33
71151;BME280;59071;42.138;24.768;2023-11-21T02:29:18;99469.63;;;6.70;71.88
71151;BME280;59071;42.138;24.768;2023-11-21T02:31:48;99481.66;;;6.58;72.08
71151;BME280;59071;42.138;24.768;2023-11-21T02:34:15;99490.88;;;6.32;73.60
71151;BME280;59071;42.138;24.768;2023-11-21T02:36:40;99484.75;;;6.32;73.82
71151;BME280;59071;42.138;24.768;2023-11-21T02:39:07;99480.56;;;6.37;73.53
71151;BME280;59071;42.138;24.768;2023-11-21T02:41:33;99475.56;;;6.28;73.40
71151;BME280;59071;42.138;24.768;2023-11-21T02:44:00;99472.91;;;6.57;72.43
71151;BME280;59071;42.138;24.768;2023-11-21T02:46:25;99476.03;;;6.31;73.35
71151;BME280;59071;42.138;24.768;2023-11-21T02:48:50;99477.00;;;6.00;74.47
71151;BME280;59071;42.138;24.768;2023-11-21T02:51:16;99473.56;;;5.92;74.00
71151;BME280;59071;42.138;24.768;2023-11-21T02:53:41;99480.84;;;5.98;75.14
71151;BME280;59071;42.138;24.768;2023-11-21T02:56:07;99481.84;;;6.12;73.44
71151;BME280;59071;42.138;24.768;2023-11-21T02:58:32;99481.50;;;5.92;73.76
71151;BME280;59071;42.138;24.768;2023-11-21T03:00:58;99488.69;;;6.21;72.95
71151;BME280;59071;42.138;24.768;2023-11-21T03:03:24;99489.06;;;6.33;72.40
71151;BME280;59071;42.138;24.768;2023-11-21T03:05:49;99493.50;;;6.47;72.29
71151;BME280;59071;42.138;24.768;2023-11-21T03:08:15;99483.88;;;6.24;72.58
71151;BME280;59071;42.138;24.768;2023-11-21T03:10:40;99489.78;;;6.26;72.98
71151;BME280;59071;42.138;24.768;2023-11-21T03:13:06;99487.69;;;6.37;72.18
71151;BME280;59071;42.138;24.768;2023-11-21T03:15:31;99491.78;;;6.39;71.48
71151;BME280;59071;42.138;24.768;2023-11-21T03:17:58;99489.31;;;6.53;71.35
71151;BME280;59071;42.138;24.768;2023-11-21T03:20:23;99491.88;;;6.31;72.54
71151;BME280;59071;42.138;24.768;2023-11-21T03:22:48;99487.34;;;6.40;72.29
71151;BME280;59071;42.138;24.768;2023-11-21T03:25:14;99483.78;;;6.33;72.75
71151;BME280;59071;42.138;24.768;2023-11-21T03:27:42;99478.09;;;6.36;72.68
71151;BME280;59071;42.138;24.768;2023-11-21T03:30:10;99490.50;;;6.35;72.68
71151;BME280;59071;42.138;24.768;2023-11-21T03:32:36;99479.59;;;6.38;72.30
71151;BME280;59071;42.138;24.768;2023-11-21T03:35:01;99491.78;;;6.54;71.89
71151;BME280;59071;42.138;24.768;2023-11-21T03:37:28;99479.94;;;6.50;71.76
71151;BME280;59071;42.138;24.768;2023-11-21T03:39:54;99489.69;;;6.50;71.76
71151;BME280;59071;42.138;24.768;2023-11-21T03:42:20;99485.97;;;6.59;71.25
71151;BME280;59071;42.138;24.768;2023-11-21T03:44:46;99489.88;;;6.48;72.01
71151;BME280;59071;42.138;24.768;2023-11-21T03:47:11;99486.13;;;6.57;71.58
71151;BME280;59071;42.138;24.768;2023-11-21T03:49:37;99488.59;;;6.59;71.90
71151;BME280;59071;42.138;24.768;2023-11-21T03:52:03;99483.78;;;6.48;71.77
71151;BME280;59071;42.138;24.768;2023-11-21T03:54:28;99489.78;;;6.26;73.27
71151;BME280;59071;42.138;24.768;2023-11-21T03:56:54;99487.84;;;6.20;73.54
71151;BME280;59071;42.138;24.768;2023-11-21T03:59:19;99488.28;;;6.09;74.44
71151;BME280;59071;42.138;24.768;2023-11-21T04:01:44;99502.72;;;6.21;73.20
71151;BME280;59071;42.138;24.768;2023-11-21T04:04:10;99502.81;;;6.43;72.12
71151;BME280;59071;42.138;24.768;2023-11-21T04:06:35;99508.47;;;6.40;72.36
71151;BME280;59071;42.138;24.768;2023-11-21T04:09:02;99507.75;;;6.61;71.65
71151;BME280;59071;42.138;24.768;2023-11-21T04:11:29;99500.16;;;6.43;72.90
71151;BME280;59071;42.138;24.768;2023-11-21T04:13:55;99500.38;;;6.26;73.73
71151;BME280;59071;42.138;24.768;2023-11-21T04:16:20;99507.81;;;6.08;73.86
71151;BME280;59071;42.138;24.768;2023-11-21T04:18:46;99508.56;;;5.94;74.79
71151;BME280;59071;42.138;24.768;2023-11-21T04:21:11;99516.97;;;5.97;75.01
71151;BME280;59071;42.138;24.768;2023-11-21T04:23:37;99512.09;;;5.86;75.01
71151;BME280;59071;42.138;24.768;2023-11-21T04:26:02;99496.41;;;5.84;74.96
71151;BME280;59071;42.138;24.768;2023-11-21T04:28:28;99496.84;;;5.96;74.26
71151;BME280;59071;42.138;24.768;2023-11-21T04:30:53;99509.81;;;6.36;73.06
71151;BME280;59071;42.138;24.768;2023-11-21T04:33:19;99522.22;;;6.05;75.01
71151;BME280;59071;42.138;24.768;2023-11-21T04:35:45;99517.56;;;6.37;76.00
71151;BME280;59071;42.138;24.768;2023-11-21T04:38:10;99508.47;;;6.25;75.01
71151;BME280;59071;42.138;24.768;2023-11-21T04:40:35;99505.25;;;6.30;73.97
71151;BME280;59071;42.138;24.768;2023-11-21T04:43:01;99515.94;;;6.36;73.14
71151;BME280;59071;42.138;24.768;2023-11-21T04:45:27;99519.22;;;6.23;74.26
71151;BME280;59071;42.138;24.768;2023-11-21T04:47:52;99515.09;;;6.36;73.80
71151;BME280;59071;42.138;24.768;2023-11-21T04:50:18;99519.59;;;6.35;72.54
71151;BME280;59071;42.138;24.768;2023-11-21T04:52:43;99520.50;;;6.28;72.39
71151;BME280;59071;42.138;24.768;2023-11-21T04:55:09;99517.84;;;6.28;72.52
71151;BME280;59071;42.138;24.768;2023-11-21T04:57:36;99515.69;;;6.46;72.49
71151;BME280;59071;42.138;24.768;2023-11-21T05:00:03;99513.56;;;6.56;72.38
71151;BME280;59071;42.138;24.768;2023-11-21T05:02:31;99513.19;;;6.30;72.85
71151;BME280;59071;42.138;24.768;2023-11-21T05:04:57;99508.56;;;5.94;74.45
71151;BME280;59071;42.138;24.768;2023-11-21T05:07:22;99496.59;;;6.06;74.65
71151;BME280;59071;42.138;24.768;2023-11-21T05:09:47;99493.84;;;5.99;73.90
71151;BME280;59071;42.138;24.768;2023-11-21T05:12:13;99504.59;;;6.13;74.18
71151;BME280;59071;42.138;24.768;2023-11-21T05:14:39;99511.09;;;6.10;73.97
71151;BME280;59071;42.138;24.768;2023-11-21T05:17:05;99518.66;;;6.28;73.93
71151;BME280;59071;42.138;24.768;2023-11-21T05:19:30;99521.88;;;6.53;72.43
71151;BME280;59071;42.138;24.768;2023-11-21T05:21:58;99519.59;;;6.65;72.18
71151;BME280;59071;42.138;24.768;2023-11-21T05:24:24;99530.81;;;6.52;72.12
71151;BME280;59071;42.138;24.768;2023-11-21T05:26:49;99534.31;;;6.15;73.50
71151;BME280;59071;42.138;24.768;2023-11-21T05:29:14;99523.84;;;5.83;74.69
71151;BME280;59071;42.138;24.768;2023-11-21T05:31:40;99528.69;;;6.18;73.78
71151;BME280;59071;42.138;24.768;2023-11-21T05:34:05;99525.28;;;6.09;74.29
71151;BME280;59071;42.138;24.768;2023-11-21T05:36:31;99528.38;;;5.98;74.62
71151;BME280;59071;42.138;24.768;2023-11-21T05:38:56;99523.06;;;6.51;81.42
71151;BME280;59071;42.138;24.768;2023-11-21T05:41:22;99525.00;;;8.16;90.59
71151;BME280;59071;42.138;24.768;2023-11-21T05:43:48;99527.06;;;9.52;87.58
71151;BME280;59071;42.138;24.768;2023-11-21T05:46:13;99525.06;;;10.47;81.66
71151;BME280;59071;42.138;24.768;2023-11-21T05:48:39;99533.69;;;10.94;70.16
71151;BME280;59071;42.138;24.768;2023-11-21T05:51:06;99531.69;;;10.83;61.77
71151;BME280;59071;42.138;24.768;2023-11-21T05:53:33;99536.16;;;10.96;60.48
71151;BME280;59071;42.138;24.768;2023-11-21T05:55:58;99526.16;;;10.85;58.69
71151;BME280;59071;42.138;24.768;2023-11-21T05:58:24;99523.94;;;10.75;58.24
71151;BME280;59071;42.138;24.768;2023-11-21T06:00:49;99528.91;;;10.58;57.17
71151;BME280;59071;42.138;24.768;2023-11-21T06:03:15;99523.00;;;10.43;58.02
71151;BME280;59071;42.138;24.768;2023-11-21T06:05:40;99528.50;;;10.41;57.24
71151;BME280;59071;42.138;24.768;2023-11-21T06:08:05;99538.72;;;10.57;57.25
71151;BME280;59071;42.138;24.768;2023-11-21T06:10:32;99541.16;;;10.72;57.83
71151;BME280;59071;42.138;24.768;2023-11-21T06:12:58;99540.94;;;11.26;56.04
71151;BME280;59071;42.138;24.768;2023-11-21T06:15:23;99539.31;;;11.63;54.88
71151;BME280;59071;42.138;24.768;2023-11-21T06:17:49;99520.84;;;12.19;51.70
71151;BME280;59071;42.138;24.768;2023-11-21T06:20:17;99528.34;;;12.47;56.12
71151;BME280;59071;42.138;24.768;2023-11-21T06:22:44;99529.47;;;12.58;53.40
71151;BME280;59071;42.138;24.768;2023-11-21T06:25:11;99543.50;;;12.90;52.24
71151;BME280;59071;42.138;24.768;2023-11-21T06:27:42;99536.72;;;13.24;51.95
71151;BME280;59071;42.138;24.768;2023-11-21T06:30:08;99534.63;;;13.45;49.53
71151;BME280;59071;42.138;24.768;2023-11-21T06:32:35;99531.31;;;13.31;49.99
71151;BME280;59071;42.138;24.768;2023-11-21T06:35:04;99537.16;;;13.40;49.46
71151;BME280;59071;42.138;24.768;2023-11-21T06:37:30;99530.41;;;13.37;48.46
71151;BME280;59071;42.138;24.768;2023-11-21T06:39:57;99531.13;;;13.44;48.55
71151;BME280;59071;42.138;24.768;2023-11-21T06:42:24;99534.56;;;13.33;52.84
71151;BME280;59071;42.138;24.768;2023-11-21T06:44:50;99535.91;;;13.24;49.35
71151;BME280;59071;42.138;24.768;2023-11-21T06:47:19;99529.84;;;13.47;49.19
71151;BME280;59071;42.138;24.768;2023-11-21T06:49:50;99533.88;;;12.70;50.21
71151;BME280;59071;42.138;24.768;2023-11-21T06:52:15;99529.41;;;13.01;49.08
71151;BME280;59071;42.138;24.768;2023-11-21T06:54:41;99520.25;;;13.09;48.72
71151;BME280;59071;42.138;24.768;2023-11-21T06:57:07;99521.16;;;12.66;49.42
71151;BME280;59071;42.138;24.768;2023-11-21T06:59:33;99521.31;;;12.52;49.74
71151;BME280;59071;42.138;24.768;2023-11-21T07:01:58;99531.84;;;12.04;50.77
71151;BME280;59071;42.138;24.768;2023-11-21T07:04:24;99528.00;;;12.62;49.91
71151;BME280;59071;42.138;24.768;2023-11-21T07:06:53;99526.06;;;12.69;49.08
71151;BME280;59071;42.138;24.768;2023-11-21T07:09:18;99541.78;;;12.40;49.77
71151;BME280;59071;42.138;24.768;2023-11-21T07:11:47;99535.91;;;13.24;49.25
71151;BME280;59071;42.138;24.768;2023-11-21T07:14:13;99539.41;;;13.55;48.13
71151;BME280;59071;42.138;24.768;2023-11-21T07:16:38;99551.75;;;13.56;47.59
71151;BME280;59071;42.138;24.768;2023-11-21T07:19:04;99542.28;;;13.83;47.01
71151;BME280;59071;42.138;24.768;2023-11-21T07:21:36;99548.13;;;14.04;46.57
71151;BME280;59071;42.138;24.768;2023-11-21T07:24:04;99544.53;;;14.10;45.77
71151;BME280;59071;42.138;24.768;2023-11-21T07:26:31;99541.63;;;14.12;45.76
71151;BME280;59071;42.138;24.768;2023-11-21T07:28:57;99539.53;;;14.02;45.53
71151;BME280;59071;42.138;24.768;2023-11-21T07:31:22;99539.38;;;13.85;45.58
71151;BME280;59071;42.138;24.768;2023-11-21T07:33:49;99528.91;;;13.41;46.93
71151;BME280;59071;42.138;24.768;2023-11-21T07:36:15;99530.06;;;13.45;47.13
71151;BME280;59071;42.138;24.768;2023-11-21T07:38:43;99523.94;;;13.57;47.44
71151;BME280;59071;42.138;24.768;2023-11-21T07:41:10;99547.41;;;14.08;46.81
71151;BME280;59071;42.138;24.768;2023-11-21T07:43:36;99536.84;;;14.37;46.14
71151;BME280;59071;42.138;24.768;2023-11-21T07:46:02;99542.88;;;14.92;45.74
71151;BME280;59071;42.138;24.768;2023-11-21T07:48:29;99541.97;;;15.15;44.42
71151;BME280;59071;42.138;24.768;2023-11-21T07:50:55;99545.78;;;15.59;43.35
71151;BME280;59071;42.138;24.768;2023-11-21T07:53:20;99552.28;;;16.09;41.84
71151;BME280;59071;42.138;24.768;2023-11-21T07:55:47;99550.78;;;16.35;42.69
71151;BME280;59071;42.138;24.768;2023-11-21T07:58:12;99546.72;;;16.72;41.01
71151;BME280;59071;42.138;24.768;2023-11-21T08:00:38;99545.72;;;16.78;40.61
71151;BME280;59071;42.138;24.768;2023-11-21T08:03:04;99549.41;;;16.89;40.77
71151;BME280;59071;42.138;24.768;2023-11-21T08:05:31;99542.63;;;16.86;40.27
71151;BME280;59071;42.138;24.768;2023-11-21T08:07:57;99541.00;;;17.07;39.56
71151;BME280;59071;42.138;24.768;2023-11-21T08:10:22;99543.06;;;17.22;39.99
71151;BME280;59071;42.138;24.768;2023-11-21T08:12:48;99542.50;;;17.20;39.56
71151;BME280;59071;42.138;24.768;2023-11-21T08:15:14;99537.78;;;17.32;39.60
71151;BME280;59071;42.138;24.768;2023-11-21T08:17:39;99537.59;;;17.12;39.56
71151;BME280;59071;42.138;24.768;2023-11-21T08:20:05;99538.91;;;17.64;38.64
71151;BME280;59071;42.138;24.768;2023-11-21T08:22:33;99543.97;;;18.14;37.79
71151;BME280;59071;42.138;24.768;2023-11-21T08:24:59;99540.72;;;18.55;37.19
71151;BME280;59071;42.138;24.768;2023-11-21T08:27:25;99543.22;;;18.77;36.56
71151;BME280;59071;42.138;24.768;2023-11-21T08:29:50;99541.22;;;19.05;35.78
71151;BME280;59071;42.138;24.768;2023-11-21T08:32:17;99537.47;;;19.06;36.26
71151;BME280;59071;42.138;24.768;2023-11-21T08:34:43;99543.66;;;19.01;36.10
71151;BME280;59071;42.138;24.768;2023-11-21T08:37:10;99536.84;;;18.88;36.34
71151;BME280;59071;42.138;24.768;2023-11-21T08:39:37;99526.13;;;19.09;36.15
71151;BME280;59071;42.138;24.768;2023-11-21T08:55:24;99505.97;;;19.32;35.03
71151;BME280;59071;42.138;24.768;2023-11-21T08:57:50;99502.47;;;19.31;35.45
71151;BME280;59071;42.138;24.768;2023-11-21T09:00:16;99496.03;;;19.48;35.82
71151;BME280;59071;42.138;24.768;2023-11-21T09:02:45;99481.50;;;19.90;35.55
71151;BME280;59071;42.138;24.768;2023-11-21T09:05:11;99489.28;;;20.12;34.00
71151;BME280;59071;42.138;24.768;2023-11-21T09:07:38;99476.78;;;20.47;33.93
71151;BME280;59071;42.138;24.768;2023-11-21T09:10:04;99476.75;;;20.62;32.99
71151;BME280;59071;42.138;24.768;2023-11-21T09:12:31;99468.63;;;20.52;32.06
71151;BME280;59071;42.138;24.768;2023-11-21T09:14:57;99466.06;;;20.11;32.53
71151;BME280;59071;42.138;24.768;2023-11-21T09:17:23;99463.31;;;20.31;32.94
71151;BME280;59071;42.138;24.768;2023-11-21T09:19:49;99462.59;;;19.85;33.67
71151;BME280;59071;42.138;24.768;2023-11-21T09:22:17;99457.66;;;19.10;34.56
71151;BME280;59071;42.138;24.768;2023-11-21T09:24:43;99455.25;;;19.29;34.26
71151;BME280;59071;42.138;24.768;2023-11-21T09:27:09;99438.03;;;19.86;33.65
71151;BME280;59071;42.138;24.768;2023-11-21T09:29:35;99446.06;;;20.22;33.35
71151;BME280;59071;42.138;24.768;2023-11-21T09:32:02;99445.31;;;19.70;33.49
71151;BME280;59071;42.138;24.768;2023-11-21T09:34:28;99448.22;;;19.18;34.38
71151;BME280;59071;42.138;24.768;2023-11-21T09:36:53;99432.63;;;19.56;33.59
71151;BME280;59071;42.138;24.768;2023-11-21T09:39:19;99433.13;;;19.63;34.42
71151;BME280;59071;42.138;24.768;2023-11-21T09:41:51;99435.31;;;19.66;33.60
71151;BME280;59071;42.138;24.768;2023-11-21T09:44:30;99440.16;;;20.05;33.36
71151;BME280;59071;42.138;24.768;2023-11-21T09:46:59;99436.09;;;20.13;32.66
71151;BME280;59071;42.138;24.768;2023-11-21T09:49:26;99435.59;;;19.85;32.97
71151;BME280;59071;42.138;24.768;2023-11-21T09:51:55;99431.25;;;19.27;34.40
71151;BME280;59071;42.138;24.768;2023-11-21T09:54:22;99426.69;;;19.79;33.68
71151;BME280;59071;42.138;24.768;2023-11-21T09:56:48;99417.75;;;19.89;33.38
71151;BME280;59071;42.138;24.768;2023-11-21T09:59:15;99414.75;;;20.06;33.49
71151;BME280;59071;42.138;24.768;2023-11-21T10:01:41;99406.06;;;20.14;32.57
71151;BME280;59071;42.138;24.768;2023-11-21T10:04:08;99405.31;;;19.93;33.74
71151;BME280;59071;42.138;24.768;2023-11-21T10:06:40;99405.38;;;19.72;33.66
71151;BME280;59071;42.138;24.768;2023-11-21T10:09:12;99392.91;;;19.87;33.27
71151;BME280;59071;42.138;24.768;2023-11-21T10:11:42;99385.13;;;19.39;33.57
71151;BME280;59071;42.138;24.768;2023-11-21T10:14:10;99381.63;;;19.75;34.03
71151;BME280;59071;42.138;24.768;2023-11-21T10:16:38;99369.88;;;20.15;32.96
71151;BME280;59071;42.138;24.768;2023-11-21T10:19:04;99361.34;;;19.67;33.38
71151;BME280;59071;42.138;24.768;2023-11-21T10:21:32;99360.56;;;19.20;33.91
71151;BME280;59071;42.138;24.768;2023-11-21T10:23:58;99368.66;;;19.30;33.87
71151;BME280;59071;42.138;24.768;2023-11-21T10:26:25;99357.84;;;19.61;33.79
71151;BME280;59071;42.138;24.768;2023-11-21T10:28:58;99363.53;;;19.39;34.62
71151;BME280;59071;42.138;24.768;2023-11-21T10:31:26;99359.16;;;19.95;33.78
71151;BME280;59071;42.138;24.768;2023-11-21T10:33:52;99351.09;;;19.64;33.20
71151;BME280;59071;42.138;24.768;2023-11-21T10:36:27;99353.56;;;19.45;32.99
71151;BME280;59071;42.138;24.768;2023-11-21T10:38:53;99350.03;;;19.65;32.62
71151;BME280;59071;42.138;24.768;2023-11-21T10:41:20;99348.69;;;19.72;33.25
71151;BME280;59071;42.138;24.768;2023-11-21T10:43:45;99345.69;;;19.84;33.04
71151;BME280;59071;42.138;24.768;2023-11-21T10:46:11;99347.88;;;19.62;33.06
71151;BME280;59071;42.138;24.768;2023-11-21T10:48:37;99346.75;;;19.83;32.96
71151;BME280;59071;42.138;24.768;2023-11-21T10:51:09;99328.84;;;20.18;32.70
71151;BME280;59071;42.138;24.768;2023-11-21T10:53:39;99324.81;;;20.10;32.89
71151;BME280;59071;42.138;24.768;2023-11-21T10:56:08;99333.06;;;20.29;32.66
71151;BME280;59071;42.138;24.768;2023-11-21T10:58:37;99329.72;;;20.53;32.45
71151;BME280;59071;42.138;24.768;2023-11-21T11:01:06;99331.72;;;20.82;32.18
71151;BME280;59071;42.138;24.768;2023-11-21T11:03:32;99322.69;;;21.02;32.02
71151;BME280;59071;42.138;24.768;2023-11-21T11:06:02;99325.00;;;20.79;31.54
71151;BME280;59071;42.138;24.768;2023-11-21T11:08:28;99323.28;;;20.88;31.78
71151;BME280;59071;42.138;24.768;2023-11-21T11:10:54;99310.41;;;20.25;31.91
71151;BME280;59071;42.138;24.768;2023-11-21T11:13:19;99303.97;;;20.16;31.94
71151;BME280;59071;42.138;24.768;2023-11-21T11:15:49;99314.25;;;20.14;32.69
71151;BME280;59071;42.138;24.768;2023-11-21T11:18:16;99308.53;;;20.26;32.42
71151;BME280;59071;42.138;24.768;2023-11-21T11:20:43;99292.94;;;20.13;32.87
71151;BME280;59071;42.138;24.768;2023-11-21T11:29:10;99276.09;;;19.45;33.81
71151;BME280;59071;42.138;24.768;2023-11-21T11:31:48;99262.13;;;19.23;33.77
71151;BME280;59071;42.138;24.768;2023-11-21T11:34:28;99255.44;;;18.94;33.76
71151;BME280;59071;42.138;24.768;2023-11-21T11:37:05;99237.34;;;19.10;33.97
71151;BME280;59071;42.138;24.768;2023-11-21T11:39:42;99224.91;;;18.32;35.04
71151;BME280;59071;42.138;24.768;2023-11-21T11:42:15;99208.44;;;18.13;35.82
71151;BME280;59071;42.138;24.768;2023-11-21T11:47:31;99198.06;;;17.16;37.11
71151;BME280;59071;42.138;24.768;2023-11-21T11:50:12;99209.63;;;16.79;38.32
71151;BME280;59071;42.138;24.768;2023-11-21T11:52:52;99213.34;;;16.46;39.17
71151;BME280;59071;42.138;24.768;2023-11-21T11:55:24;99204.56;;;16.23;39.78
71151;BME280;59071;42.138;24.768;2023-11-21T11:57:53;99195.72;;;16.55;39.04
71151;BME280;59071;42.138;24.768;2023-11-21T12:02:59;99190.63;;;16.27;38.85
71151;BME280;59071;42.138;24.768;2023-11-21T12:05:27;99177.06;;;15.84;39.87
71151;BME280;59071;42.138;24.768;2023-11-21T12:07:56;99185.81;;;16.01;39.53
71151;BME280;59071;42.138;24.768;2023-11-21T12:10:28;99188.00;;;16.05;40.09
71151;BME280;59071;42.138;24.768;2023-11-21T12:12:57;99188.94;;;16.48;39.48
71151;BME280;59071;42.138;24.768;2023-11-21T12:15:24;99182.88;;;16.30;39.63
71151;BME280;59071;42.138;24.768;2023-11-21T12:17:51;99187.59;;;15.91;40.10
71151;BME280;59071;42.138;24.768;2023-11-21T12:20:21;99195.44;;;15.53;41.07
71151;BME280;59071;42.138;24.768;2023-11-21T12:22:48;99178.97;;;15.44;41.92
71151;BME280;59071;42.138;24.768;2023-11-21T12:25:21;99177.84;;;15.62;41.32
71151;BME280;59071;42.138;24.768;2023-11-21T12:27:49;99174.31;;;15.79;40.72
71151;BME280;59071;42.138;24.768;2023-11-21T12:30:16;99188.66;;;15.90;41.11
71151;BME280;59071;42.138;24.768;2023-11-21T12:32:49;99193.03;;;16.01;40.57
71151;BME280;59071;42.138;24.768;2023-11-21T12:35:17;99203.28;;;16.31;39.83
71151;BME280;59071;42.138;24.768;2023-11-21T12:37:45;99195.72;;;16.55;39.34
71151;BME280;59071;42.138;24.768;2023-11-21T12:40:12;99203.41;;;16.79;39.12
71151;BME280;59071;42.138;24.768;2023-11-21T12:42:44;99193.09;;;16.93;39.26
71151;BME280;59071;42.138;24.768;2023-11-21T12:47:54;99185.19;;;16.49;40.36
71151;BME280;59071;42.138;24.768;2023-11-21T12:50:24;99185.81;;;16.01;41.03
71151;BME280;59071;42.138;24.768;2023-11-21T12:52:54;99186.72;;;15.85;41.35
71151;BME280;59071;42.138;24.768;2023-11-21T12:55:23;99182.50;;;16.16;40.71
71151;BME280;59071;42.138;24.768;2023-11-21T12:57:53;99176.88;;;16.50;40.13
71151;BME280;59071;42.138;24.768;2023-11-21T13:00:32;99151.34;;;16.15;40.56
71151;BME280;59071;42.138;24.768;2023-11-21T13:02:59;99161.03;;;16.21;40.18
71151;BME280;59071;42.138;24.768;2023-11-21T13:05:27;99164.72;;;16.42;39.78
71151;BME280;59071;42.138;24.768;2023-11-21T13:07:57;99166.53;;;16.64;39.92
71151;BME280;59071;42.138;24.768;2023-11-21T13:10:27;99166.16;;;16.88;39.32
71151;BME280;59071;42.138;24.768;2023-11-21T13:12:58;99168.63;;;16.94;39.22
71151;BME280;59071;42.138;24.768;2023-11-21T13:15:24;99165.53;;;17.18;38.60
71151;BME280;59071;42.138;24.768;2023-11-21T13:17:50;99158.91;;;17.31;38.69
71151;BME280;59071;42.138;24.768;2023-11-21T13:20:16;99154.09;;;17.43;38.34